Algarkirk, United Kingdom
Current Conditions -  °F | °C
As of 12:13 AM on Thursday 29 Jan 2015 (Local Time) from EGXC Reporting Station
Snow Showers Snow Showers  
Wind Chill: 23°   Ceiling: 5000
Heat Index: 36°   Visibility: 2.5mi
Dew Point: 32°   Wind: 26mph
Humidity: 87%   Direction: 250°WSW
Pressure: 29.26"   Gusts: 43mph
Location:  52.93°N, 0.03°W
Report Text: EGXC 290013Z 25023G37KT 4000 SHSN SCT010 BKN050 02/00 Q0991 GRN
Loading
Personal Weather Stations






























Interactive Weather Map New forecast layout! Learn more

10-Day Weather Forecast

Advertisements
Track Severe Weather on mobile